Sweeney Granite Mountains, California Weather observations

Data are for 10 minute period ending at time listed.
 Day   Time   Solar   Ave.   Ave.  Ave.  Vector  Max.   Baro.   Total    
  of    of     Rad.   Air    Rel.  Wind   Wind   Wind  Press.  Precip.   
Year   Day            Temp.  Hum.  Speed  Dir.   Gust                    
2017   (PST)  Kw/m2    F      %     mph   deg.    mph    mb.     in.     
-------------------------------------------------------------------------
  51   11:10   0.60   50.6    68    7.0   135    10.7   875.6    0.00 
  51   11:20   0.54   50.2    69    5.7   128    11.1   875.7    0.00 
  51   11:30   0.78   51.0    69    6.4   126    10.4   875.7    0.00 
  51   11:40   0.74   50.5    70    6.1   140    12.9   875.7    0.00 
  51   11:50   0.72   51.2    68    5.0   122    11.1   875.7    0.00 
  51   12:00   0.69   51.7    68    4.3    99     8.8   875.5    0.00 
  51   12:10   0.43   51.3    69    3.2   134     7.3   875.5    0.00 
  51   12:20   0.66   51.6    70    4.5   129     9.2   875.4    0.00 
  51   12:30   0.62   51.6    70    4.8   131     9.8   875.2    0.00 
  51   12:40   0.76   52.1    69    4.4   118     8.6   875.2    0.00 
  51   12:50   0.77   53.0    68    5.8   123    10.4   875.0    0.00 
  51   13:00   0.60   52.3    69    5.5   133    10.4   875.1    0.00 
  51   13:10   0.72   52.8    68    4.4   126    10.6   875.0    0.00 
  51   13:20   0.71   53.6    66    5.1   111    10.1   875.0    0.00 
  51   13:30   0.52   52.4    68    6.4   119    11.6   875.0    0.00 
  51   13:40   0.66   53.2    66    5.1   127    10.8   874.9    0.00 
  51   13:50   0.63   53.1    66    4.4   118    10.8   874.8    0.00 
  51   14:00   0.61   53.8    65    5.7   132    12.0   874.8    0.00 
  51   14:10   0.59   54.2    64    4.2   117     9.3   874.8    0.00 
  51   14:20   0.57   53.7    65    6.3   138    12.2   874.8    0.00 
  51   14:30   0.56   53.2    66    5.4   127    11.5   875.0    0.00 
  51   14:40   0.38   53.4    66    6.4   130    11.5   875.1    0.00 
  51   14:50   0.65   53.7    66    4.6   113     9.5   875.1    0.00 
  51   15:00   0.21   53.3    67    5.0   119     8.9   875.1    0.00 
  51   15:10   0.40   53.0    67    4.7   126     9.2   875.1    0.00 
  51   15:20   0.41   54.1    64    2.7   128     7.0   875.1    0.00 
  51   15:30   0.38   54.3    64    4.3   108    10.1   875.1    0.00 
  51   15:40   0.31   53.8    65    4.4   119     9.6   875.2    0.00 
  51   15:50   0.03   52.5    68    4.4   121     9.3   875.2    0.00 
  51   16:00   0.03   51.9    70    3.0   133     8.2   875.1    0.00 
  51   16:10   0.03   51.6    71    4.6   126     8.8   875.0    0.00 
  51   16:20   0.03   51.4    72    4.8   124     8.6   874.9    0.00 
  51   16:30   0.03   51.0    74    4.0   114     8.3   874.9    0.00 
  51   16:40   0.07   51.1    74    3.7   155     7.9   874.9    0.00 
  51   16:50   0.05   51.3    75    3.4   109     8.3   875.0    0.00 
  51   17:00   0.04   50.9    77    2.1   108     5.3   875.0    0.00 
  51   17:10   0.03   50.9    77    0.9   226     2.7   875.1    0.00 
  51   17:20   0.03   50.8    77    2.7   101     5.8   875.3    0.00 
  51   17:30   0.01   50.7    78    2.8   113     4.5   875.4    0.00 
  51   17:40   0.00   50.7    79    1.2   116     3.4   875.5    0.00 
  51   17:50   0.00   50.3    80    2.6    99     6.0   875.6    0.00 
  51   18:00   0.00   50.1    81    1.3    88     3.2   875.7    0.00 
  51   18:10   0.00   49.7    82    1.7   228     3.1   875.8    0.00 
  51   18:20   0.00   49.4    83    1.0   223     2.6   876.0    0.00 
  51   18:30   0.00   48.9    83    1.7   216     5.0   876.0    0.00 
  51   18:40   0.00   49.0    83    1.7   264     3.9   876.0    0.00 
  51   18:50   0.00   48.7    84    1.8   248     2.9   876.1    0.00 
  51   19:00   0.00   47.3    86    2.6   294     4.2   876.3    0.00 
  51   19:10   0.00   47.3    86    1.5   290     2.3   876.4    0.00 
  51   19:20   0.00   46.9    88    1.4   296     2.0   876.4    0.00 
  51   19:30   0.00   46.6    87    2.7   267     3.8   876.4    0.00 
  51   19:40   0.00   46.3    89    3.9   274     4.5   876.4    0.00 
  51   19:50   0.00   46.9    88    3.1   266     4.4   876.5    0.00 
  51   20:00   0.00   47.3    87    2.8   272     4.3   876.5    0.00 
  51   20:10   0.00   47.1    86    2.9   283     3.9   876.6    0.00 
  51   20:20   0.00   46.7    88    3.1   291     4.3   876.8    0.00 
  51   20:30   0.00   47.1    88    2.9   287     3.7   876.9    0.00 
  51   20:40   0.00   46.8    88    2.9   288     3.9   876.9    0.00 
  51   20:50   0.00   47.0    88    2.9   280     3.6   876.9    0.00 
  51   21:00   0.00   47.1    88    2.8   285     3.3   876.8    0.00 
  51   21:10   0.00   47.2    88    2.4   284     3.4   876.8    0.00 
  51   21:20   0.00   47.5    88    1.1   260     2.1   876.8    0.00 
  51   21:30   0.00   46.7    89    0.5   224     1.7   876.8    0.00 
  51   21:40   0.00   46.8    89    0.6   270     1.5   876.9    0.00 
  51   21:50   0.00   45.1    90    0.9   301     3.2   877.0    0.00 
  51   22:00   0.00   45.7    92    3.1   104     5.2   877.0    0.00 
  51   22:10   0.00   46.2    91    1.9   114     3.4   876.9    0.00 
  51   22:20   0.00   45.7    90    0.9   267     2.4   876.9    0.00 
  51   22:30   0.00   45.2    92    0.9   280     2.4   877.0    0.00 
  51   22:40   0.00   45.0    92    0.7   331     1.8   877.0    0.00 
  51   22:50   0.00   44.5    92    0.9   284     2.4   877.0    0.00 
  51   23:00   0.00   44.1    93    3.0   284     3.8   877.0    0.00 
  51   23:10   0.00   44.2    94    2.8   281     3.4   877.0    0.00 
  51   23:20   0.00   45.4    92    3.5   296     4.2   877.0    0.00 
  51   23:30   0.00   45.0    91    3.1   275     3.9   877.1    0.00 
  51   23:40   0.00   43.4    92    3.3   280     4.0   877.1    0.00 
  51   23:50   0.00   43.1    94    1.8   266     2.8   876.9    0.00 
  52    0:00   0.00   44.7    93    2.2   298     3.5   876.9    0.00 
  52    0:10   0.00   44.9    92    1.7   274     3.3   877.0    0.00 
  52    0:20   0.00   45.8    93    1.2    62     2.7   877.1    0.00 
  52    0:30   0.00   46.7    91    0.6    33     2.2   877.2    0.00 
  52    0:40   0.00   46.0    92    0.8    27     4.5   877.3    0.00 
  52    0:50   0.00   45.3    93    3.1   280     4.7   877.3    0.00 
  52    1:00   0.00   45.9    92    2.3   280     2.9   877.3    0.00 
  52    1:10   0.00   45.7    93    3.1   287     3.7   877.3    0.00 
  52    1:20   0.00   46.9    92    3.1   271     3.9   877.2    0.00 
  52    1:30   0.00   46.3    91    3.3   280     4.5   877.2    0.00 
  52    1:40   0.00   46.3    93    4.6   278     5.8   877.2    0.00 
  52    1:50   0.00   47.4    91    4.6   271     6.1   877.2    0.00 
  52    2:00   0.00   47.8    89    3.1   287     4.7   877.2    0.00 
  52    2:10   0.00   46.8    90    2.9   283     3.9   877.1    0.00 
  52    2:20   0.00   47.2    89    1.2   159     2.4   877.1    0.00 
  52    2:30   0.00   46.7    90    0.6    46     1.9   876.9    0.00 
  52    2:40   0.00   46.2    92    0.1   113     0.9   876.8    0.00 
  52    2:50   0.00   45.7    91    0.6   323     2.8   876.8    0.00 
  52    3:00   0.00   44.9    93    1.9   282     2.8   876.8    0.00 
  52    3:10   0.00   44.1    94    2.8   287     3.9   876.7    0.00 
  52    3:20   0.00   45.7    94    2.6   264     3.4   876.6    0.00 
  52    3:30   0.00   45.6    92    0.8   263     2.0   876.6    0.00 
  52    3:40   0.00   45.8    94    2.1   117     2.9   876.6    0.00 
  52    3:50   0.00   46.1    93    1.2    21     2.8   876.7    0.00 
  52    4:00   0.00   45.9    94    0.8   239     2.1   876.7    0.00 
  52    4:10   0.00   45.4    93    0.6   328     1.5   876.7    0.00 
  52    4:20   0.00   45.6    94    0.1    89     0.9   876.6    0.00 
  52    4:30   0.00   45.2    94    0.5   104     1.5   876.5    0.00 
  52    4:40   0.00   44.5    94    2.1   290     3.7   876.5    0.00 
  52    4:50   0.00   45.2    95    1.1   266     3.2   876.5    0.00 
  52    5:00   0.00   44.4    94    2.5   287     3.9   876.7    0.00 
  52    5:10   0.00   45.2    95    2.9   284     3.9   876.8    0.00 
  52    5:20   0.00   45.1    93    2.3   280     3.4   876.9    0.00 
  52    5:30   0.00   45.3    93    0.4   307     1.6   876.9    0.00 
  52    5:40   0.00   45.3    93    0.2   289     1.6   876.9    0.00 
  52    5:50   0.00   45.3    94    1.9   209     3.1   876.9    0.00 
  52    6:00   0.00   46.5    92    1.3   260     3.4   876.7    0.00 
  52    6:10   0.00   46.7    92    3.6   285     4.5   876.8    0.00 
  52    6:20   0.00   47.5    89    1.5   282     3.4   877.0    0.00 
  52    6:30   0.00   47.6    88    2.3   264     3.8   877.0    0.00 
  52    6:40   0.02   49.2    83    1.5   130     2.7   877.1    0.00 
  52    6:50   0.01   48.8    84    1.1   113     1.8   877.1    0.00 
  52    7:00   0.03   48.7    85    0.9   122     1.7   877.2    0.00 
  52    7:10   0.03   48.7    86    0.9   121     1.8   877.3    0.00 
  52    7:20   0.08   49.3    86    0.5   122     2.0   877.4    0.00 
  52    7:30   0.08   49.6    85    0.2   305     1.3   877.4    0.00 
  52    7:40   0.09   49.9    82    0.0     0     0.0   877.4    0.00 
  52    7:50   0.05   50.5    82    0.6   289     1.4   877.4    0.00 
  52    8:00   0.06   50.1    83    1.5   290     2.7   877.5    0.00 
  52    8:10   0.08   50.3    83    1.6   283     2.2   877.5    0.00 
  52    8:20   0.08   50.8    79    0.9   278     2.2   877.7    0.00 
  52    8:30   0.09   50.9    79    2.0   292     2.9   877.7    0.00 
  52    8:40   0.09   51.3    74    1.8   245     2.7   877.8    0.00 
  52    8:50   0.10   52.0    73    1.1   195     2.0   877.7    0.00 
  52    9:00   0.14   52.7    73    0.8   112     2.0   877.7    0.00 
  52    9:10   0.12   52.7    74    1.8   118     4.7   877.7    0.00 
  52    9:20   0.11   51.5    78    3.7   126     5.5   877.8    0.00 
  52    9:30   0.22   51.4    79    2.0   130     4.5   877.8    0.00 
  52    9:40   0.29   53.4    74    1.8   144     3.9   877.9    0.00 
  52    9:50   0.22   52.7    75    4.0   126     6.3   878.0    0.00 
  52   10:00   0.23   52.6    76    1.6   129     3.8   878.2    0.00 
  52   10:10   0.23   53.6    75    0.6   180     2.9   878.3    0.00 
  52   10:20   0.14   53.4    75    1.3   238     3.1   878.4    0.00 
  52   10:30   0.12   53.0    73    1.7   210     2.9   878.4    0.00 
  52   10:40   0.13   53.0    70    0.7   218     2.3   878.3    0.00 
  52   10:50   0.22   54.1    68    0.9   255     2.4   878.1    0.00 
  52   11:00   0.19   55.2    65    0.6   204     3.0   878.1    0.00 

Return to Sweeney Granite Mountains graphs page.


Western Regional Climate Center,wrcc@dri.edu